Time;durP1;ratioP1;P1;durP2;ratioP2;P2;SDS_P1;SDS_P2;PMS_P1;PMS_P2;Temp;Humidity;BMP_temperature;BMP_pressure;BME280_temperature;BME280_humidity;BME280_pressure;Samples;Min_cycle;Max_cycle;Signal;HPM_P1;HPM_P2
2023/10/01 00:00:17;;;;;;;5.40;3.78;;;17.30;95.00;;;;;;6238338;23;20346;-55
2023/10/01 00:03:05;;;;;;;7.90;4.30;;;17.30;95.00;;;;;;6239687;23;20012;-55
2023/10/01 00:05:52;;;;;;;6.97;3.83;;;17.30;95.00;;;;;;6238707;23;20012;-56
2023/10/01 00:08:39;;;;;;;10.80;4.03;;;17.30;95.00;;;;;;6239140;23;20082;-56
2023/10/01 00:11:25;;;;;;;6.43;3.47;;;17.30;95.00;;;;;;6240145;23;20008;-55
2023/10/01 00:14:11;;;;;;;7.53;3.67;;;17.30;95.00;;;;;;6238309;23;20016;-51
2023/10/01 00:16:58;;;;;;;7.18;4.18;;;17.30;95.00;;;;;;6237459;23;20012;-52
2023/10/01 00:19:45;;;;;;;8.10;3.65;;;17.30;95.10;;;;;;6237776;23;20366;-55
2023/10/01 00:22:33;;;;;;;9.98;4.22;;;17.30;95.00;;;;;;6238155;23;20512;-54
2023/10/01 00:25:21;;;;;;;7.00;3.95;;;17.30;95.00;;;;;;6240380;23;20054;-56
2023/10/01 00:28:08;;;;;;;8.10;3.60;;;17.30;95.10;;;;;;6238293;23;20011;-56
2023/10/01 00:30:54;;;;;;;8.02;3.53;;;17.20;95.10;;;;;;6238941;23;20086;-57
2023/10/01 00:33:41;;;;;;;11.63;3.65;;;17.20;95.00;;;;;;6238204;23;20020;-57
2023/10/01 00:36:29;;;;;;;6.60;3.65;;;17.20;94.90;;;;;;6238986;23;20007;-55
2023/10/01 00:39:15;;;;;;;6.47;3.38;;;17.20;94.90;;;;;;6239382;23;20039;-58
2023/10/01 00:42:01;;;;;;;6.43;3.78;;;17.20;95.00;;;;;;6239400;23;20004;-54
2023/10/01 00:44:47;;;;;;;8.80;3.17;;;17.20;95.00;;;;;;6237618;23;20019;-53
2023/10/01 00:47:39;;;;;;;5.75;3.45;;;17.20;95.00;;;;;;6238537;23;20008;-56
2023/10/01 00:50:27;;;;;;;5.05;3.17;;;17.20;94.90;;;;;;6239264;23;20008;-55
2023/10/01 00:53:13;;;;;;;6.38;3.80;;;17.20;95.10;;;;;;6237972;23;20020;-54
2023/10/01 00:56:00;;;;;;;6.57;3.40;;;17.10;94.90;;;;;;6238663;22;20592;-55
2023/10/01 00:58:46;;;;;;;5.60;3.30;;;17.20;94.90;;;;;;6240592;23;20027;-55
2023/10/01 01:01:33;;;;;;;6.00;3.05;;;17.10;94.80;;;;;;6241893;23;20008;-56
2023/10/01 01:04:22;;;;;;;9.05;3.47;;;17.10;94.90;;;;;;6241443;23;20012;-56
2023/10/01 01:07:21;;;;;;;7.72;3.55;;;17.10;94.80;;;;;;6239633;23;20008;-55
2023/10/01 01:10:07;;;;;;;6.15;2.63;;;17.10;94.80;;;;;;6240656;23;20009;-56
2023/10/01 01:12:54;;;;;;;6.38;3.13;;;17.10;94.80;;;;;;6241259;23;20055;-53
2023/10/01 01:15:40;;;;;;;9.15;3.60;;;17.10;94.80;;;;;;6239616;23;20456;-56
2023/10/01 01:18:27;;;;;;;5.80;2.97;;;17.00;94.70;;;;;;6240346;23;20008;-55
2023/10/01 01:21:13;;;;;;;7.93;2.92;;;17.10;94.80;;;;;;6241094;23;20008;-55
2023/10/01 01:23:59;;;;;;;7.15;2.95;;;17.00;94.80;;;;;;6239350;23;20089;-56
2023/10/01 01:26:51;;;;;;;5.97;3.60;;;17.00;94.80;;;;;;6240269;23;20493;-56
2023/10/01 01:29:44;;;;;;;5.32;2.75;;;17.00;94.80;;;;;;6242236;23;20169;-58
2023/10/01 01:32:32;;;;;;;6.88;3.28;;;17.00;94.90;;;;;;6242285;23;20020;-56
2023/10/01 01:35:27;;;;;;;8.18;2.90;;;16.90;94.90;;;;;;6240482;23;20070;-55
2023/10/01 01:38:13;;;;;;;;;;;16.90;94.80;;;;;;6241364;23;20088;-55
2023/10/01 01:41:00;;;;;;;;;;;16.90;94.80;;;;;;6239930;23;19900;-57
2023/10/01 01:43:50;;;;;;;6.28;2.92;;;16.90;94.70;;;;;;6240288;23;19899;-57
2023/10/01 01:46:35;;;;;;;8.43;3.83;;;16.90;94.80;;;;;;6240607;23;20042;-54
2023/10/01 01:49:21;;;;;;;8.15;3.20;;;16.80;94.80;;;;;;6239848;23;20421;-56
2023/10/01 01:52:10;;;;;;;6.10;3.30;;;16.90;94.80;;;;;;6239595;23;20007;-55
2023/10/01 01:55:00;;;;;;;5.82;3.08;;;16.90;94.80;;;;;;6239745;23;20020;-57
2023/10/01 01:58:02;;;;;;;5.22;2.83;;;16.90;94.80;;;;;;6239316;23;20446;-56
2023/10/01 02:04:09;;;;;;;7.78;3.13;;;16.90;94.80;;;;;;6207532;23;20016;-56
2023/10/01 02:06:56;;;;;;;7.50;2.85;;;16.90;94.80;;;;;;6207579;23;20150;-54
2023/10/01 02:09:41;;;;;;;6.82;2.80;;;16.80;94.80;;;;;;6207877;23;20150;-56
2023/10/01 02:12:30;;;;;;;4.95;2.60;;;16.90;94.90;;;;;;6207685;23;20013;-57
2023/10/01 02:15:15;;;;;;;7.13;2.50;;;16.80;95.00;;;;;;6186572;23;20473;-54
2023/10/01 02:18:02;;;;;;;5.32;2.70;;;16.80;94.80;;;;;;6208370;23;20107;-57
2023/10/01 02:20:52;;;;;;;5.53;3.40;;;16.90;95.00;;;;;;6207880;23;20114;-56
2023/10/01 02:23:38;;;;;;;5.10;2.25;;;16.80;94.80;;;;;;6208272;23;20088;-55
2023/10/01 02:26:23;;;;;;;7.00;2.35;;;16.90;94.80;;;;;;6207814;23;20028;-77
2023/10/01 02:29:12;;;;;;;3.67;2.10;;;16.80;94.80;;;;;;6207715;23;20009;-77
2023/10/01 02:32:04;;;;;;;5.97;2.63;;;16.80;94.80;;;;;;6208186;23;20012;-77
2023/10/01 02:34:50;;;;;;;5.63;2.50;;;16.80;94.80;;;;;;6208811;23;20020;-77
2023/10/01 02:37:36;;;;;;;4.88;2.42;;;16.80;94.80;;;;;;6221324;23;20019;-76
2023/10/01 02:40:22;;;;;;;6.63;3.15;;;16.80;94.80;;;;;;6239346;23;20019;-77
2023/10/01 02:43:08;;;;;;;6.57;2.78;;;16.80;94.90;;;;;;6239404;23;20441;-78
2023/10/01 02:45:54;;;;;;;6.53;2.95;;;16.90;94.90;;;;;;6238505;23;20079;-78
2023/10/01 02:48:40;;;;;;;6.53;2.33;;;16.90;94.90;;;;;;6239881;23;20008;-77
2023/10/01 02:51:32;;;;;;;4.60;2.63;;;16.80;94.90;;;;;;6239409;23;20023;-78
2023/10/01 02:54:20;;;;;;;4.82;2.67;;;16.80;94.90;;;;;;6240336;23;20020;-78
2023/10/01 02:57:12;;;;;;;4.60;2.40;;;16.80;94.90;;;;;;6239914;22;20468;-81
2023/10/01 03:03:04;;;;;;;4.65;2.25;;;16.80;94.90;;;;;;6222679;23;20441;-79
2023/10/01 03:05:53;;;;;;;4.80;2.60;;;16.80;94.80;;;;;;6241323;23;20082;-81
2023/10/01 03:11:40;;;;;;;5.20;2.50;;;16.80;94.80;;;;;;6240449;23;20020;-80
2023/10/01 03:14:26;;;;;;;4.28;2.20;;;16.80;94.80;;;;;;6238454;23;20468;-80
2023/10/01 03:17:17;;;;;;;8.02;2.50;;;16.80;94.70;;;;;;6239084;23;20008;-80
2023/10/01 03:21:07;;;;;;;4.82;2.30;;;16.80;94.70;;;;;;6238868;23;20513;-78
2023/10/01 03:26:08;;;;;;;4.97;2.35;;;16.80;94.70;;;;;;6241095;23;20120;-85
2023/10/01 03:32:26;;;;;;;6.75;2.80;;;16.80;94.70;;;;;;6241037;23;20008;-81
2023/10/01 03:35:08;;;;;;;4.68;2.83;;;16.80;94.70;;;;;;6239811;23;20028;-80
2023/10/01 03:38:14;;;;;;;5.35;2.97;;;16.80;94.70;;;;;;6240612;23;20012;-82
2023/10/01 03:41:00;;;;;;;6.00;2.90;;;16.80;94.70;;;;;;6240875;23;20008;-82
2023/10/01 03:43:47;;;;;;;5.45;2.63;;;16.80;94.70;;;;;;6241132;23;20035;-85
2023/10/01 03:46:42;;;;;;;11.15;3.10;;;16.80;94.60;;;;;;6239746;23;20381;-83
2023/10/01 03:49:37;;;;;;;6.93;2.50;;;16.80;94.70;;;;;;6242763;23;20082;-80
2023/10/01 03:52:28;;;;;;;4.20;2.28;;;16.80;94.70;;;;;;6238282;23;20117;-82
2023/10/01 03:55:27;;;;;;;6.13;2.85;;;16.80;94.70;;;;;;6241900;22;20026;-83
2023/10/01 03:58:26;;;;;;;5.18;2.40;;;16.80;94.70;;;;;;6239314;23;20016;-83
2023/10/01 04:01:33;;;;;;;6.20;2.60;;;16.80;94.80;;;;;;6239890;23;20012;-85
2023/10/01 04:04:20;;;;;;;6.05;2.63;;;16.70;94.80;;;;;;6239496;23;20018;-57
2023/10/01 04:07:11;;;;;;;6.15;2.75;;;16.70;94.80;;;;;;6241159;23;20004;-56
2023/10/01 04:09:57;;;;;;;5.38;2.83;;;16.70;94.80;;;;;;6238152;23;20442;-56
2023/10/01 04:12:44;;;;;;;10.10;2.97;;;16.70;94.80;;;;;;6238638;23;20043;-56
2023/10/01 04:15:30;;;;;;;6.35;2.72;;;16.70;94.80;;;;;;6239760;23;20035;-56
2023/10/01 04:23:48;;;;;;;5.28;2.53;;;16.70;94.80;;;;;;6239617;23;20074;-56
2023/10/01 04:26:35;;;;;;;5.53;2.65;;;16.70;94.80;;;;;;6238286;23;20055;-56
2023/10/01 04:29:24;;;;;;;5.80;2.58;;;16.70;94.90;;;;;;6241219;23;20350;-58
2023/10/01 04:32:12;;;;;;;6.20;2.60;;;16.70;94.90;;;;;;6220247;23;20012;-58
2023/10/01 04:34:58;;;;;;;5.22;2.88;;;16.70;95.00;;;;;;6242349;23;20031;-56
2023/10/01 04:37:47;;;;;;;8.77;3.00;;;16.70;95.00;;;;;;6240959;23;20035;-56
2023/10/01 04:40:39;;;;;;;5.53;2.45;;;16.70;95.00;;;;;;6241462;23;20109;-60
2023/10/01 04:43:34;;;;;;;5.07;2.50;;;16.70;95.00;;;;;;6241686;23;20019;-58
2023/10/01 04:46:24;;;;;;;;;;;16.70;94.90;;;;;;6239785;23;20533;-58
2023/10/01 04:49:31;;;;;;;10.02;2.60;;;16.70;94.90;;;;;;6240151;23;19974;-58
2023/10/01 04:52:17;;;;;;;5.13;2.50;;;16.60;94.90;;;;;;6242192;23;20016;-60
2023/10/01 04:55:08;;;;;;;9.48;2.80;;;16.60;95.00;;;;;;6241518;23;20030;-60
2023/10/01 04:57:56;;;;;;;3.75;2.28;;;16.70;95.20;;;;;;6241004;23;20015;-61
2023/10/01 05:00:46;;;;;;;5.47;2.80;;;16.60;95.00;;;;;;6240550;23;20095;-60
2023/10/01 05:03:44;;;;;;;8.52;2.83;;;16.60;95.00;;;;;;6241135;23;20107;-60
2023/10/01 05:06:31;;;;;;;5.35;2.88;;;16.70;95.10;;;;;;6239557;23;20378;-60
2023/10/01 05:09:22;;;;;;;9.52;3.08;;;16.70;95.20;;;;;;6242084;23;20016;-61
2023/10/01 05:12:09;;;;;;;7.35;3.20;;;16.70;95.20;;;;;;6239526;23;20086;-59
2023/10/01 05:15:17;;;;;;;7.18;2.55;;;16.70;95.10;;;;;;6240935;23;20020;-60
2023/10/01 05:18:04;;;;;;;6.20;2.95;;;16.70;95.10;;;;;;6238924;23;20008;-60
2023/10/01 05:20:58;;;;;;;6.93;2.60;;;16.70;95.10;;;;;;6241990;23;20334;-60
2023/10/01 05:23:45;;;;;;;8.32;3.08;;;16.70;95.20;;;;;;6239265;23;20015;-61
2023/10/01 05:26:35;;;;;;;4.38;2.55;;;16.70;95.40;;;;;;6241321;23;20019;-60
2023/10/01 05:29:21;;;;;;;6.65;2.90;;;16.70;95.30;;;;;;6239170;23;20043;-60
2023/10/01 05:32:07;;;;;;;6.70;2.83;;;16.70;95.40;;;;;;6240243;23;20012;-60
2023/10/01 05:34:53;;;;;;;7.57;2.88;;;16.70;95.40;;;;;;6242865;23;20378;-60
2023/10/01 05:37:39;;;;;;;8.13;3.38;;;16.80;95.40;;;;;;6239012;23;20008;-60
2023/10/01 05:40:29;;;;;;;7.43;3.08;;;16.80;95.40;;;;;;6241805;23;20012;-59
2023/10/01 05:43:15;;;;;;;5.95;2.50;;;16.80;95.40;;;;;;6240031;23;20011;-60
2023/10/01 05:46:02;;;;;;;10.18;3.65;;;16.80;95.30;;;;;;6240305;23;20167;-60
2023/10/01 05:48:49;;;;;;;5.65;2.65;;;16.80;95.30;;;;;;6241983;23;20008;-60
2023/10/01 05:51:54;;;;;;;7.45;2.92;;;16.90;95.30;;;;;;6240634;23;20040;-60
2023/10/01 05:54:50;;;;;;;6.07;3.13;;;16.90;95.40;;;;;;6239190;23;20016;-60
2023/10/01 05:57:37;;;;;;;7.60;3.03;;;16.90;95.20;;;;;;6242092;23;20062;-60
2023/10/01 06:00:26;;;;;;;5.03;2.90;;;16.90;95.30;;;;;;6238423;23;20517;-60
2023/10/01 06:03:14;;;;;;;5.72;2.85;;;17.00;95.30;;;;;;6240660;23;20393;-59
2023/10/01 06:06:10;;;;;;;12.10;3.17;;;17.00;95.30;;;;;;6240741;23;20018;-60
2023/10/01 06:08:59;;;;;;;7.15;2.83;;;17.00;95.30;;;;;;6240232;23;20012;-60
2023/10/01 06:11:48;;;;;;;9.38;2.70;;;17.10;95.30;;;;;;6239756;23;20008;-60
2023/10/01 06:14:39;;;;;;;6.88;3.10;;;17.10;95.30;;;;;;6238815;23;20059;-61
2023/10/01 06:17:28;;;;;;;6.43;3.17;;;17.10;95.30;;;;;;6239333;23;20016;-60
2023/10/01 06:20:23;;;;;;;4.63;2.58;;;17.10;95.20;;;;;;6241731;23;20016;-59
2023/10/01 06:23:10;;;;;;;7.00;2.95;;;17.20;95.30;;;;;;6239340;23;20012;-61
2023/10/01 06:25:58;;;;;;;6.30;3.03;;;17.20;95.30;;;;;;6238167;23;20127;-59
2023/10/01 06:28:44;;;;;;;4.30;2.58;;;17.20;95.30;;;;;;6242315;23;20020;-61
2023/10/01 06:31:47;;;;;;;7.85;3.08;;;17.30;95.40;;;;;;6215887;23;20008;-60
2023/10/01 06:34:33;;;;;;;5.28;2.42;;;17.30;95.40;;;;;;6238318;23;20047;-62
2023/10/01 06:37:19;;;;;;;7.72;2.58;;;17.40;95.40;;;;;;6240237;23;20058;-60
2023/10/01 06:40:29;;;;;;;6.53;3.00;;;17.40;95.20;;;;;;6239189;23;20044;-60
2023/10/01 06:43:12;;;;;;;7.28;2.67;;;17.40;95.20;;;;;;6239943;23;20016;-61
2023/10/01 06:46:03;;;;;;;5.70;3.35;;;17.50;95.30;;;;;;6239236;23;20019;-60
2023/10/01 06:48:50;;;;;;;6.03;3.05;;;17.50;95.30;;;;;;6217061;23;20012;-60
2023/10/01 06:51:43;;;;;;;6.35;2.80;;;17.60;95.20;;;;;;6239065;23;20014;-59
2023/10/01 06:54:29;;;;;;;7.40;2.70;;;17.60;95.10;;;;;;6239072;23;20511;-60
2023/10/01 06:57:21;;;;;;;8.80;3.03;;;17.60;95.00;;;;;;6237916;22;20007;-60
2023/10/01 07:00:21;;;;;;;7.63;3.05;;;17.70;94.90;;;;;;6238719;23;20016;-60
2023/10/01 07:03:17;;;;;;;6.30;2.95;;;17.70;94.80;;;;;;6239850;23;20000;-60
2023/10/01 07:06:04;;;;;;;;;;;17.70;94.90;;;;;;6237640;23;20482;-61
2023/10/01 07:08:50;;;;;;;4.82;2.70;;;17.70;94.90;;;;;;6239477;23;19903;-61
2023/10/01 07:11:37;;;;;;;3.95;2.78;;;17.70;94.70;;;;;;6238901;23;20011;-63
2023/10/01 07:14:31;;;;;;;7.45;3.33;;;17.70;94.60;;;;;;6239043;23;20016;-62
2023/10/01 07:17:19;;;;;;;5.53;2.78;;;17.80;94.60;;;;;;6237050;23;20079;-61
2023/10/01 07:20:18;;;;;;;5.95;2.70;;;17.80;94.50;;;;;;6239205;23;20016;-62
2023/10/01 07:23:04;;;;;;;6.90;3.35;;;17.80;94.50;;;;;;6240635;23;20489;-62
2023/10/01 07:26:00;;;;;;;5.60;2.53;;;17.90;94.60;;;;;;6238855;23;20108;-61
2023/10/01 07:28:55;;;;;;;6.35;2.78;;;17.90;94.60;;;;;;6207969;23;20091;-61
2023/10/01 07:31:41;;;;;;;;;;;17.90;94.50;;;;;;6237185;23;20015;-62
2023/10/01 07:34:28;;;;;;;5.22;2.30;;;18.00;94.60;;;;;;6239292;23;19915;-62
2023/10/01 07:37:23;;;;;;;5.35;2.90;;;18.00;94.30;;;;;;6239168;23;20060;-62
2023/10/01 07:40:13;;;;;;;10.43;3.53;;;18.00;94.20;;;;;;6239311;23;20019;-60
2023/10/01 07:43:01;;;;;;;8.50;2.58;;;18.00;94.20;;;;;;6239053;23;20327;-62
2023/10/01 07:45:55;;;;;;;10.73;2.80;;;18.00;94.00;;;;;;6239627;23;20323;-61
2023/10/01 07:48:47;;;;;;;8.48;3.47;;;18.10;94.10;;;;;;6239042;23;20097;-62
2023/10/01 07:51:38;;;;;;;8.30;3.22;;;18.10;94.00;;;;;;6238709;23;20393;-62
2023/10/01 07:54:28;;;;;;;6.13;3.22;;;18.10;93.90;;;;;;6237771;23;20063;-61
2023/10/01 07:57:27;;;;;;;7.38;2.45;;;18.10;93.80;;;;;;6238026;22;20012;-62
2023/10/01 08:00:26;;;;;;;3.40;2.40;;;18.10;93.70;;;;;;6238072;23;20486;-62
2023/10/01 08:06:15;;;;;;;5.43;2.90;;;18.20;93.60;;;;;;6240566;23;20012;-61
2023/10/01 08:09:05;;;;;;;7.65;2.65;;;18.30;93.70;;;;;;6241465;23;20508;-63
2023/10/01 08:12:06;;;;;;;5.65;3.03;;;18.50;93.70;;;;;;6241274;23;20012;-65
2023/10/01 08:15:15;;;;;;;7.05;3.50;;;18.60;93.50;;;;;;6240005;23;20020;-66
2023/10/01 08:21:04;;;;;;;6.15;3.00;;;18.80;93.20;;;;;;6240749;23;20117;-69
2023/10/01 08:23:54;;;;;;;10.20;3.38;;;18.90;93.40;;;;;;6218730;23;20455;-68
2023/10/01 08:26:43;;;;;;;7.30;2.60;;;19.00;93.30;;;;;;6241475;23;20031;-67
2023/10/01 08:29:36;;;;;;;5.45;2.55;;;19.10;93.20;;;;;;6241211;23;20094;-69
2023/10/01 08:32:22;;;;;;;6.55;2.55;;;19.20;93.00;;;;;;6240570;23;20398;-66
2023/10/01 08:35:08;;;;;;;6.00;2.97;;;19.30;92.90;;;;;;6241832;23;20074;-68
2023/10/01 08:37:59;;;;;;;6.60;2.97;;;19.30;92.90;;;;;;6240528;23;20465;-63
2023/10/01 08:40:49;;;;;;;4.75;2.75;;;19.30;93.00;;;;;;6242502;23;20012;-64
2023/10/01 08:43:35;;;;;;;5.72;2.70;;;19.30;93.00;;;;;;6239745;23;20089;-73
2023/10/01 08:46:31;;;;;;;5.95;3.00;;;19.40;93.10;;;;;;6240908;23;20012;-73
2023/10/01 08:49:23;;;;;;;7.05;2.70;;;19.50;93.00;;;;;;6240720;23;20014;-82
2023/10/01 08:52:19;;;;;;;5.50;3.00;;;19.50;92.90;;;;;;6241387;23;20565;-78
2023/10/01 08:55:08;;;;;;;4.90;2.47;;;19.60;92.80;;;;;;6243622;22;20082;-76
2023/10/01 08:57:55;;;;;;;5.80;3.13;;;19.70;92.80;;;;;;6243818;23;20339;-73
2023/10/01 09:00:48;;;;;;;5.93;2.88;;;19.80;92.90;;;;;;6239899;23;20008;-76
2023/10/01 09:03:38;;;;;;;4.70;2.58;;;19.90;92.70;;;;;;6242727;23;20143;-75
2023/10/01 09:06:59;;;;;;;5.18;3.28;;;19.90;92.50;;;;;;6243180;23;20004;-80
2023/10/01 09:10:08;;;;;;;7.93;3.30;;;20.00;92.40;;;;;;6243440;23;20018;-75
2023/10/01 09:13:03;;;;;;;5.57;3.08;;;20.00;92.50;;;;;;6243166;23;20527;-74
2023/10/01 09:15:56;;;;;;;4.43;2.58;;;20.00;92.30;;;;;;6240973;22;20022;-77
2023/10/01 09:19:29;;;;;;;5.72;2.50;;;20.00;92.30;;;;;;6240053;23;20012;-78
2023/10/01 09:22:16;;;;;;;9.05;2.72;;;20.20;92.30;;;;;;6240077;23;20019;-77
2023/10/01 09:25:19;;;;;;;9.45;3.80;;;20.20;92.20;;;;;;6239349;23;20095;-77
2023/10/01 09:28:29;;;;;;;4.90;2.63;;;20.20;92.00;;;;;;6241028;23;20015;-76
2023/10/01 09:31:32;;;;;;;6.40;3.45;;;20.20;91.90;;;;;;6219068;23;20012;-61
2023/10/01 09:34:31;;;;;;;6.15;2.38;;;20.30;91.90;;;;;;6219325;23;20078;-61
2023/10/01 09:37:33;;;;;;;7.00;3.13;;;20.40;91.70;;;;;;6242731;23;20008;-61
2023/10/01 09:43:24;;;;;;;7.03;3.38;;;20.50;91.80;;;;;;6241284;23;20042;-61
2023/10/01 09:46:11;;;;;;;4.53;2.60;;;20.50;91.60;;;;;;6241996;23;20008;-61
2023/10/01 09:49:00;;;;;;;6.90;2.70;;;20.60;91.70;;;;;;6240595;23;20012;-61
2023/10/01 09:51:52;;;;;;;5.05;3.08;;;20.60;91.50;;;;;;6229274;23;20380;-61
2023/10/01 09:54:48;;;;;;;6.68;3.03;;;20.60;91.60;;;;;;6239940;23;20016;-61
2023/10/01 09:57:37;;;;;;;6.63;2.97;;;20.70;91.50;;;;;;6240320;23;20012;-61
2023/10/01 10:00:39;;;;;;;6.65;3.28;;;20.80;91.60;;;;;;6243830;23;20202;-79
2023/10/01 10:03:27;;;;;;;4.90;2.42;;;20.90;91.40;;;;;;6240805;23;20008;-80
2023/10/01 10:06:24;;;;;;;8.88;3.05;;;21.00;91.20;;;;;;6239960;23;20018;-80
2023/10/01 10:09:29;;;;;;;7.72;2.83;;;21.10;90.90;;;;;;6243214;23;20341;-80
2023/10/01 10:12:33;;;;;;;5.85;2.85;;;21.10;90.90;;;;;;6241342;23;20369;-78
2023/10/01 10:15:53;;;;;;;9.05;2.97;;;21.10;90.80;;;;;;6239471;23;20020;-78
2023/10/01 10:19:04;;;;;;;9.98;3.42;;;21.20;90.70;;;;;;6241124;23;20405;-78
2023/10/01 10:22:05;;;;;;;6.70;2.83;;;21.20;90.50;;;;;;6242842;22;20004;-78
2023/10/01 10:25:25;;;;;;;5.43;2.83;;;21.20;90.30;;;;;;6239956;23;20008;-78
2023/10/01 10:28:24;;;;;;;5.35;3.10;;;21.20;90.20;;;;;;6240588;23;20004;-77
2023/10/01 10:31:35;;;;;;;4.95;2.95;;;21.30;89.60;;;;;;6241486;23;20085;-79
2023/10/01 10:34:28;;;;;;;5.57;2.95;;;21.20;89.60;;;;;;6242264;23;20020;-72
2023/10/01 10:37:36;;;;;;;7.50;2.85;;;21.30;89.30;;;;;;6239686;23;20091;-80
2023/10/01 10:40:23;;;;;;;4.43;2.67;;;21.30;89.00;;;;;;6242227;23;20083;-78
2023/10/01 10:43:16;;;;;;;5.88;3.00;;;21.20;88.40;;;;;;6240347;23;20012;-77
2023/10/01 10:46:04;;;;;;;18.45;3.05;;;21.20;87.80;;;;;;6242475;23;20079;-78
2023/10/01 10:48:59;;;;;;;8.23;3.10;;;21.20;87.80;;;;;;6242421;23;20012;-78
2023/10/01 10:51:46;;;;;;;5.45;3.00;;;21.10;87.60;;;;;;6240659;23;20008;-78
2023/10/01 10:54:33;;;;;;;7.70;3.33;;;21.10;87.70;;;;;;6240137;23;20020;-78
2023/10/01 10:57:25;;;;;;;8.18;3.28;;;21.10;87.60;;;;;;6240658;22;20004;-80
2023/10/01 11:00:23;;;;;;;5.68;3.00;;;21.10;87.80;;;;;;6240864;23;20008;-80
2023/10/01 11:03:11;;;;;;;5.18;3.00;;;21.10;87.90;;;;;;6240270;23;20019;-80
2023/10/01 11:06:16;;;;;;;6.47;3.33;;;21.20;87.60;;;;;;6239647;23;20349;-62
2023/10/01 11:09:22;;;;;;;7.83;3.17;;;21.20;87.80;;;;;;6238902;23;20107;-62
2023/10/01 11:12:22;;;;;;;7.90;3.42;;;21.30;87.30;;;;;;6239662;23;20012;-61
2023/10/01 11:15:23;;;;;;;5.82;2.70;;;21.30;86.80;;;;;;6239695;23;20020;-61
2023/10/01 11:18:10;;;;;;;5.85;2.90;;;21.40;86.70;;;;;;6239207;23;20569;-61
2023/10/01 11:21:01;;;;;;;6.00;3.20;;;21.40;86.40;;;;;;6238390;23;20450;-61
2023/10/01 11:23:53;;;;;;;8.10;3.17;;;21.40;86.00;;;;;;6237654;23;20327;-61
2023/10/01 11:27:22;;;;;;;6.25;3.60;;;21.40;85.90;;;;;;6238888;23;20070;-61
2023/10/01 11:30:13;;;;;;;5.97;3.70;;;21.40;86.10;;;;;;6240860;23;20000;-61
2023/10/01 11:35:59;;;;;;;7.80;3.65;;;21.40;85.60;;;;;;6236880;23;20020;-61
2023/10/01 11:38:50;;;;;;;5.65;3.25;;;21.30;85.70;;;;;;6239066;23;20019;-61
2023/10/01 11:41:43;;;;;;;6.97;3.22;;;21.40;85.90;;;;;;6238660;23;20083;-61
2023/10/01 11:44:35;;;;;;;9.15;3.67;;;21.40;85.90;;;;;;6239370;23;20019;-61
2023/10/01 11:47:34;;;;;;;5.03;3.47;;;21.50;85.80;;;;;;6240268;23;20446;-62
2023/10/01 11:50:23;;;;;;;6.65;3.60;;;21.60;85.70;;;;;;6240154;23;20383;-61
2023/10/01 11:53:11;;;;;;;4.85;2.88;;;21.70;85.50;;;;;;6239685;23;20012;-61
2023/10/01 11:56:01;;;;;;;9.35;3.20;;;21.70;85.30;;;;;;6239414;22;20073;-62
2023/10/01 11:58:47;;;;;;;6.15;3.10;;;21.80;84.90;;;;;;6240055;23;20271;-62
2023/10/01 12:01:39;;;;;;;8.27;4.10;;;21.90;84.90;;;;;;6238892;23;20141;-62
2023/10/01 12:04:43;;;;;;;7.85;2.63;;;22.00;84.80;;;;;;6238934;23;20036;-62
2023/10/01 12:07:45;;;;;;;4.30;2.78;;;22.10;85.00;;;;;;6239554;23;20162;-61
2023/10/01 12:10:37;;;;;;;7.68;3.53;;;22.20;84.30;;;;;;6239041;23;20012;-62
2023/10/01 12:13:23;;;;;;;6.45;2.70;;;22.20;84.20;;;;;;6239460;23;20085;-62
2023/10/01 12:16:10;;;;;;;5.80;2.90;;;22.30;84.00;;;;;;6239974;23;20039;-62
2023/10/01 12:19:21;;;;;;;5.07;3.03;;;22.30;83.60;;;;;;6239203;23;20453;-62
2023/10/01 12:22:05;;;;;;;4.60;2.45;;;22.30;83.20;;;;;;6239082;23;20008;-62
2023/10/01 12:24:58;;;;;;;8.82;4.00;;;22.30;83.40;;;;;;6238120;23;20012;-62
2023/10/01 12:27:45;;;;;;;5.35;2.78;;;22.40;83.40;;;;;;6240547;23;20352;-62
2023/10/01 12:30:31;;;;;;;6.63;2.83;;;22.40;83.40;;;;;;6239251;23;20082;-61
2023/10/01 12:33:21;;;;;;;6.03;3.03;;;22.40;83.30;;;;;;6240819;23;20468;-61
2023/10/01 12:36:31;;;;;;;4.97;2.85;;;22.40;83.10;;;;;;6238993;23;20040;-61
2023/10/01 12:39:17;;;;;;;6.57;3.22;;;22.40;83.00;;;;;;6241257;23;20097;-61
2023/10/01 12:42:04;;;;;;;6.10;2.85;;;22.40;82.80;;;;;;6237195;23;20023;-61
2023/10/01 12:45:09;;;;;;;6.63;2.63;;;22.50;82.70;;;;;;6238611;23;20015;-61
2023/10/01 12:48:08;;;;;;;10.10;3.53;;;22.50;81.90;;;;;;6237534;23;20018;-61
2023/10/01 12:51:00;;;;;;;5.93;2.45;;;22.50;81.80;;;;;;6240838;23;20012;-63
2023/10/01 12:53:49;;;;;;;4.78;2.75;;;22.50;81.60;;;;;;6239752;23;20541;-63
2023/10/01 12:56:44;;;;;;;4.82;2.63;;;22.40;81.40;;;;;;6239596;22;20461;-61
2023/10/01 13:02:43;;;;;;;5.72;2.40;;;22.40;81.90;;;;;;6218272;22;20103;-60
2023/10/01 13:05:43;;;;;;;4.03;2.50;;;22.30;81.90;;;;;;6241457;23;20168;-61
2023/10/01 13:08:29;;;;;;;10.13;3.33;;;22.30;82.20;;;;;;6241177;23;20022;-61
2023/10/01 13:14:23;;;;;;;5.05;2.42;;;22.40;82.10;;;;;;6240143;23;20107;-64
2023/10/01 13:17:19;;;;;;;6.20;2.78;;;22.30;82.10;;;;;;6242412;23;20134;-63
2023/10/01 13:20:58;;;;;;;7.07;2.60;;;22.30;81.90;;;;;;6242181;23;20023;-62
2023/10/01 13:23:15;;;;;;;5.95;3.08;;;22.30;81.80;;;;;;6240928;23;20573;-62
2023/10/01 13:26:09;;;;;;;5.20;2.40;;;22.30;81.80;;;;;;6240162;23;20032;-63
2023/10/01 13:29:00;;;;;;;5.63;2.53;;;22.30;81.70;;;;;;6240640;23;20008;-61
2023/10/01 13:31:51;;;;;;;6.40;2.90;;;22.20;81.80;;;;;;6242053;23;20473;-80
2023/10/01 13:34:54;;;;;;;9.65;2.50;;;22.20;82.30;;;;;;6242962;23;20024;-80
2023/10/01 13:37:43;;;;;;;6.93;2.97;;;22.20;82.20;;;;;;6241735;23;20383;-80
2023/10/01 13:40:29;;;;;;;7.00;2.92;;;22.20;82.60;;;;;;6243436;23;20499;-80
2023/10/01 14:11:26;;;;;;;6.22;2.60;;;22.40;81.70;;;;;;6119369;23;20049;-82
2023/10/01 14:14:16;;;;;;;6.55;2.10;;;22.40;81.40;;;;;;6119920;23;20017;-80
2023/10/01 14:17:14;;;;;;;5.30;2.30;;;22.40;81.30;;;;;;6117177;23;20010;-82
2023/10/01 14:20:00;;;;;;;4.60;2.60;;;22.40;81.60;;;;;;6120530;23;20014;-82
2023/10/01 14:22:49;;;;;;;5.88;2.40;;;22.40;81.40;;;;;;6120877;23;20042;-82
2023/10/01 14:28:45;;;;;;;;;;;22.30;81.00;;;;;;6089073;23;20046;-80
2023/10/01 14:31:49;;;;;;;3.30;2.10;;;22.30;81.10;;;;;;6091844;23;20422;-80
2023/10/01 14:34:35;;;;;;;3.03;1.87;;;22.20;80.70;;;;;;6092247;23;20271;-82
2023/10/01 14:37:22;;;;;;;6.22;3.05;;;22.10;80.60;;;;;;6089453;23;20246;-80
2023/10/01 14:40:13;;;;;;;7.32;2.72;;;22.10;80.40;;;;;;6087256;23;20007;-81
2023/10/01 14:42:59;;;;;;;6.68;2.92;;;22.10;80.10;;;;;;6089504;23;20014;-80
2023/10/01 14:45:45;;;;;;;6.20;2.40;;;22.00;80.20;;;;;;6107096;23;20021;-80
2023/10/01 14:48:38;;;;;;;4.82;2.55;;;22.00;80.10;;;;;;6210996;23;20017;-77
2023/10/01 14:51:28;;;;;;;4.25;2.38;;;21.90;80.00;;;;;;6211657;23;20062;-79
2023/10/01 14:54:17;;;;;;;4.30;1.88;;;21.90;79.80;;;;;;6190209;23;20134;-83
2023/10/01 14:57:03;;;;;;;5.45;2.17;;;21.90;79.70;;;;;;6211705;23;20016;-81
2023/10/01 14:59:49;;;;;;;4.55;2.22;;;21.80;79.90;;;;;;6212902;23;20324;-82
2023/10/01 15:02:37;;;;;;;3.53;2.00;;;21.80;80.00;;;;;;6212007;23;20359;-80
2023/10/01 15:05:23;;;;;;;4.43;2.08;;;21.80;80.10;;;;;;6210091;23;20009;-81
2023/10/01 15:08:09;;;;;;;6.45;2.85;;;21.80;80.20;;;;;;6192053;23;20067;-81
2023/10/01 15:10:58;;;;;;;7.30;3.22;;;21.80;80.50;;;;;;6212039;23;20021;-82
2023/10/01 15:13:46;;;;;;;6.38;2.90;;;21.70;80.70;;;;;;6210403;23;20482;-81
2023/10/01 15:16:32;;;;;;;8.05;3.95;;;21.70;80.90;;;;;;6213464;23;20387;-82
2023/10/01 15:19:18;;;;;;;5.30;2.53;;;21.70;81.00;;;;;;6212278;23;20096;-82
2023/10/01 15:22:10;;;;;;;5.90;2.85;;;21.60;80.80;;;;;;6212178;23;20031;-80
2023/10/01 15:24:59;;;;;;;6.80;2.90;;;21.60;81.00;;;;;;6209549;23;20020;-62
2023/10/01 15:27:47;;;;;;;5.05;2.67;;;21.60;81.20;;;;;;6210408;23;20304;-61
2023/10/01 15:30:35;;;;;;;3.45;2.53;;;21.50;81.70;;;;;;6188265;23;20351;-61
2023/10/01 15:33:22;;;;;;;8.13;3.38;;;21.40;81.20;;;;;;6207776;23;20016;-62
2023/10/01 15:36:15;;;;;;;6.93;3.05;;;21.40;81.50;;;;;;6208711;23;20016;-61
2023/10/01 15:39:14;;;;;;;4.90;2.60;;;21.30;83.80;;;;;;6209711;23;20008;-62
2023/10/01 15:42:09;;;;;;;9.10;3.05;;;21.10;85.40;;;;;;6211746;23;20008;-77
2023/10/01 15:44:59;;;;;;;7.32;3.30;;;21.00;86.70;;;;;;6209970;23;20048;-75
2023/10/01 15:47:46;;;;;;;4.45;2.70;;;20.90;87.70;;;;;;6189574;23;20093;-76
2023/10/01 15:50:38;;;;;;;13.35;3.67;;;20.70;89.30;;;;;;6189139;23;20018;-74
2023/10/01 15:53:24;;;;;;;10.82;3.30;;;20.50;90.20;;;;;;6187175;23;20013;-76
2023/10/01 15:56:10;;;;;;;8.23;3.70;;;20.40;90.70;;;;;;6210855;23;20096;-76
2023/10/01 15:58:57;;;;;;;5.57;3.33;;;20.20;91.30;;;;;;6210732;23;20009;-77
2023/10/01 16:01:50;;;;;;;5.25;2.83;;;20.10;91.80;;;;;;6209676;23;20017;-77
2023/10/01 16:04:44;;;;;;;8.07;3.40;;;20.00;91.90;;;;;;6209300;23;20060;-79